createdAt,value
2023-03-23T00:03:46.561Z,48.21
2023-03-23T00:07:47.283Z,48.52
2023-03-23T00:11:48.005Z,48.29
2023-03-23T00:15:48.767Z,48.77
2023-03-23T00:19:49.515Z,48.29
2023-03-23T00:23:50.237Z,48.30
2023-03-23T00:27:50.993Z,49.01
2023-03-23T00:31:51.763Z,49.51
2023-03-23T00:35:52.530Z,49.15
2023-03-23T00:39:53.204Z,49.43
2023-03-23T00:43:53.927Z,49.21
2023-03-23T00:47:54.641Z,49.12
2023-03-23T00:51:55.390Z,48.91
2023-03-23T00:55:56.130Z,48.71
2023-03-23T00:59:56.942Z,48.93
2023-03-23T01:03:58.683Z,49.06
2023-03-23T01:07:58.409Z,49.11
2023-03-23T01:11:59.145Z,48.54
2023-03-23T01:15:59.883Z,48.68
2023-03-23T01:20:00.596Z,48.67
2023-03-23T01:24:01.310Z,48.56
2023-03-23T01:28:02.002Z,48.51
2023-03-23T01:32:02.710Z,48.39
2023-03-23T01:36:03.475Z,49.12
2023-03-23T01:40:04.213Z,50.33
2023-03-23T01:44:04.993Z,50.07
2023-03-23T01:48:05.740Z,49.77
2023-03-23T01:52:06.518Z,49.51
2023-03-23T01:56:07.307Z,49.64
2023-03-23T02:00:08.080Z,49.21
2023-03-23T02:04:08.836Z,49.71
2023-03-23T02:08:09.585Z,49.34
2023-03-23T02:12:10.391Z,48.91
2023-03-23T02:16:11.154Z,49.14
2023-03-23T02:20:11.973Z,49.77
2023-03-23T02:24:12.780Z,48.82
2023-03-23T02:28:13.646Z,50.49
2023-03-23T02:32:14.537Z,50.56
2023-03-23T02:36:15.395Z,50.07
2023-03-23T02:40:16.405Z,50.54
2023-03-23T05:08:50.824Z,50.11
2023-03-23T05:16:52.706Z,50.29
2023-03-23T05:20:53.585Z,50.41
2023-03-23T05:24:54.509Z,50.57
2023-03-23T05:28:55.433Z,51.11
2023-03-23T05:32:57.353Z,51.37
2023-03-23T05:36:57.229Z,51.46
2023-03-23T05:40:58.098Z,51.67
2023-03-23T05:44:58.971Z,50.86
2023-03-23T05:48:59.995Z,50.94
2023-03-23T05:53:00.959Z,51.18
2023-03-23T05:57:02.069Z,51.47
2023-03-23T06:01:03.140Z,51.98
2023-03-23T06:05:04.183Z,51.42
2023-03-23T06:09:06.620Z,50.94
2023-03-23T06:13:06.273Z,49.89
2023-03-23T06:17:07.322Z,49.69
2023-03-23T06:21:08.387Z,50.23
2023-03-23T06:29:09.903Z,50.46
2023-03-23T06:33:10.719Z,49.73
2023-03-23T06:37:11.408Z,50.09
2023-03-23T06:41:12.182Z,50.00
2023-03-23T06:45:13.062Z,49.44
2023-03-23T06:49:13.926Z,48.77
2023-03-23T06:53:14.738Z,48.92
2023-03-23T06:57:15.575Z,49.53
2023-03-23T07:01:16.473Z,49.23
2023-03-23T07:05:17.417Z,47.97
2023-03-23T07:09:18.360Z,47.84
2023-03-23T07:13:19.265Z,47.90
2023-03-23T07:17:20.352Z,47.53
2023-03-23T07:21:20.991Z,48.29
2023-03-23T07:25:21.794Z,48.04
2023-03-23T07:29:22.754Z,47.52
2023-03-23T07:33:23.590Z,48.01
2023-03-23T07:37:24.453Z,47.56
2023-03-23T07:41:25.359Z,47.41
2023-03-23T07:45:27.196Z,46.70
2023-03-23T07:49:27.100Z,46.46
2023-03-23T07:53:27.840Z,45.83
2023-03-23T07:57:28.544Z,45.91
2023-03-23T08:01:29.204Z,46.04
2023-03-23T08:05:29.852Z,45.94
2023-03-23T08:09:30.551Z,45.63
2023-03-23T08:13:31.245Z,45.58
2023-03-23T08:17:31.872Z,45.45
2023-03-23T08:21:33.573Z,45.03
2023-03-23T08:25:33.293Z,44.93
2023-03-23T08:29:34.173Z,44.72
2023-03-23T08:33:34.864Z,44.94
2023-03-23T08:37:35.557Z,44.55
2023-03-23T08:41:36.234Z,44.47
2023-03-23T08:45:36.846Z,43.73
2023-03-23T08:49:37.495Z,43.25
2023-03-23T08:53:38.192Z,43.15
2023-03-23T08:57:38.880Z,42.85
2023-03-23T09:01:39.543Z,42.29
2023-03-23T09:05:40.392Z,42.66
2023-03-23T09:09:41.633Z,42.55
2023-03-23T09:13:42.572Z,42.04
2023-03-23T09:17:42.078Z,41.30
2023-03-23T09:21:43.201Z,41.20
2023-03-23T09:25:43.458Z,41.07
2023-03-23T09:29:43.534Z,41.45
2023-03-23T09:33:47.162Z,42.09
2023-03-23T09:37:44.423Z,42.19
2023-03-23T09:41:44.892Z,41.01
2023-03-23T09:45:45.386Z,42.12
2023-03-23T09:53:46.225Z,40.71
2023-03-23T11:09:54.052Z,38.74
2023-03-23T11:13:54.385Z,38.55
2023-03-23T11:17:54.707Z,37.96
2023-03-23T11:21:55.221Z,37.87
2023-03-23T11:25:55.731Z,38.30
2023-03-23T11:29:58.685Z,37.67
2023-03-23T11:34:05.977Z,37.72
2023-03-23T11:57:58.412Z,35.78
2023-03-23T12:05:58.994Z,36.07
2023-03-23T12:09:59.304Z,36.03
2023-03-23T12:13:59.679Z,35.65
2023-03-23T12:18:00.116Z,35.23
2023-03-23T12:22:00.533Z,35.97
2023-03-23T12:30:01.266Z,34.30
2023-03-23T13:02:04.124Z,32.40
2023-03-23T13:10:05.385Z,30.11
2023-03-23T13:14:04.859Z,30.66
2023-03-23T13:26:05.817Z,30.91
2023-03-23T14:50:11.337Z,28.74
2023-03-23T15:10:10.823Z,28.51
2023-03-23T15:14:10.975Z,29.11
2023-03-23T15:18:11.365Z,29.80
2023-03-23T15:22:12.401Z,30.58
2023-03-23T15:26:11.641Z,31.60
2023-03-23T15:30:11.745Z,31.35
2023-03-23T15:34:11.892Z,31.99
2023-03-23T15:38:12.059Z,31.48
2023-03-23T15:42:12.254Z,31.56
2023-03-23T15:46:12.435Z,31.45
2023-03-23T15:50:12.617Z,32.25
2023-03-23T15:58:13.003Z,32.28
2023-03-23T16:02:13.305Z,33.55
2023-03-23T16:06:13.396Z,32.61
2023-03-23T16:10:14.602Z,33.03
2023-03-23T16:14:13.792Z,33.33
2023-03-23T16:18:14.107Z,32.64
2023-03-23T16:22:15.162Z,33.85
2023-03-23T16:26:14.762Z,33.51
2023-03-23T16:30:15.121Z,33.40
2023-03-23T16:34:15.518Z,32.94
2023-03-23T16:38:16.370Z,33.68
2023-03-23T16:42:16.352Z,34.12
2023-03-23T16:46:16.858Z,35.77
2023-03-23T16:50:17.241Z,36.28
2023-03-23T16:54:17.616Z,37.13
2023-03-23T16:58:18.330Z,37.24
2023-03-23T17:02:18.563Z,37.99
2023-03-23T17:06:18.983Z,38.07
2023-03-23T17:10:19.229Z,37.40
2023-03-23T17:14:19.449Z,38.80
2023-03-23T17:18:19.658Z,39.05
2023-03-23T17:22:19.892Z,38.90
2023-03-23T17:26:20.135Z,40.48
2023-03-23T17:30:20.851Z,40.67
2023-03-23T17:34:20.661Z,40.65
2023-03-23T17:38:21.351Z,40.92
2023-03-23T17:42:21.219Z,41.46
2023-03-23T17:46:21.533Z,41.16
2023-03-23T17:50:21.857Z,41.56
2023-03-23T17:54:22.125Z,42.59
2023-03-23T17:58:22.530Z,41.93
2023-03-23T18:02:22.877Z,42.40
2023-03-23T18:06:23.038Z,43.27
2023-03-23T18:10:23.422Z,42.98
2023-03-23T18:14:23.761Z,42.55
2023-03-23T18:18:24.053Z,42.78
2023-03-23T18:22:24.393Z,42.94
2023-03-23T18:26:24.750Z,43.26
2023-03-23T18:30:25.109Z,43.57
2023-03-23T18:34:25.463Z,43.06
2023-03-23T18:38:26.001Z,43.25
2023-03-23T18:42:26.614Z,44.09
2023-03-23T18:46:27.079Z,43.40
2023-03-23T18:50:27.682Z,44.21
2023-03-23T18:54:28.200Z,43.67
2023-03-23T18:58:28.778Z,43.54
2023-03-23T19:02:29.461Z,44.36
2023-03-23T19:06:29.934Z,44.03
2023-03-23T19:10:30.889Z,44.88
2023-03-23T19:14:31.184Z,44.93
2023-03-23T19:18:31.796Z,44.92
2023-03-23T19:22:32.440Z,45.55
2023-03-23T19:26:36.695Z,45.30
2023-03-23T19:30:33.419Z,45.64
2023-03-23T19:34:33.897Z,45.92
2023-03-23T19:38:34.275Z,46.15
2023-03-23T19:42:34.643Z,46.77
2023-03-23T19:46:35.035Z,46.24
2023-03-23T19:50:35.409Z,46.34
2023-03-23T19:54:35.853Z,45.87
2023-03-23T19:58:36.192Z,46.40
2023-03-23T20:02:37.264Z,46.99
2023-03-23T20:06:37.684Z,46.66
2023-03-23T20:10:37.409Z,46.70
2023-03-23T20:14:37.802Z,47.43
2023-03-23T20:18:38.380Z,47.83
2023-03-23T20:22:38.835Z,47.70
2023-03-23T20:26:39.180Z,45.43
2023-03-23T20:30:39.582Z,46.16
2023-03-23T20:34:40.413Z,46.50
2023-03-23T20:38:40.435Z,47.01
2023-03-23T20:42:40.872Z,47.39
2023-03-23T20:46:41.316Z,47.65
2023-03-23T20:50:41.764Z,47.95
2023-03-23T20:54:42.198Z,47.82
2023-03-23T20:58:42.657Z,47.92
2023-03-23T21:02:43.164Z,48.28
2023-03-23T21:06:43.576Z,47.92
2023-03-23T21:10:45.150Z,47.45
2023-03-23T21:14:44.531Z,47.41
2023-03-23T21:18:45.020Z,47.92
2023-03-23T21:22:45.516Z,47.61
2023-03-23T21:26:46.014Z,48.33
2023-03-23T21:30:46.798Z,48.69
2023-03-23T21:34:47.204Z,48.56
2023-03-23T21:38:47.888Z,48.63
2023-03-23T21:42:48.562Z,49.26
2023-03-23T21:46:49.260Z,48.53
2023-03-23T21:50:49.882Z,48.84
2023-03-23T21:54:50.576Z,49.09
2023-03-23T21:58:51.285Z,49.41
2023-03-23T22:02:51.997Z,49.80
2023-03-23T22:06:52.664Z,49.67
2023-03-23T22:11:01.387Z,49.15
2023-03-23T22:14:54.813Z,49.23
2023-03-23T22:18:54.301Z,50.29
2023-03-23T22:22:54.931Z,49.83
2023-03-23T22:26:55.619Z,49.72
2023-03-23T22:30:56.333Z,49.34
2023-03-23T22:34:57.463Z,49.87
2023-03-23T22:38:57.760Z,50.34
2023-03-23T22:42:58.485Z,50.13
2023-03-23T22:46:59.945Z,50.38
2023-03-23T22:50:59.987Z,50.31
2023-03-23T22:55:00.680Z,50.63
2023-03-23T22:59:01.357Z,50.28
2023-03-23T23:03:02.123Z,50.28
2023-03-23T23:07:12.585Z,50.20
2023-03-23T23:11:03.330Z,50.58
2023-03-23T23:15:03.835Z,50.39
2023-03-23T23:19:04.438Z,50.20
2023-03-23T23:23:05.464Z,50.13
2023-03-23T23:27:05.943Z,50.09
2023-03-23T23:31:06.513Z,50.33
2023-03-23T23:35:07.056Z,50.70
2023-03-23T23:39:07.560Z,50.58
2023-03-23T23:43:08.101Z,50.48
2023-03-23T23:47:08.640Z,50.54
2023-03-23T23:51:09.466Z,50.37
2023-03-23T23:55:09.692Z,50.71
2023-03-23T23:59:10.229Z,50.67
